createdAt,value
2023-02-26T00:01:26.887Z,4.67
2023-02-26T00:03:56.224Z,5.77
2023-02-26T00:06:24.628Z,4.47
2023-02-26T00:08:51.531Z,3.53
2023-02-26T00:11:18.680Z,3.63
2023-02-26T00:13:45.907Z,3.30
2023-02-26T00:16:32.687Z,1.53
2023-02-26T00:19:01.821Z,2.87
2023-02-26T00:21:29.479Z,2.07
2023-02-26T00:23:56.365Z,3.27
2023-02-26T00:26:24.456Z,5.03
2023-02-26T00:28:51.462Z,2.80
2023-02-26T00:31:18.721Z,3.83
2023-02-26T00:33:49.169Z,4.90
2023-02-26T00:36:21.806Z,2.07
2023-02-26T00:39:01.646Z,3.33
2023-02-26T00:41:29.552Z,1.40
2023-02-26T00:43:56.838Z,3.97
2023-02-26T00:46:44.451Z,2.40
2023-02-26T00:49:25.014Z,1.33
2023-02-26T00:52:00.124Z,2.20
2023-02-26T00:54:31.277Z,3.13
2023-02-26T00:57:01.139Z,3.70
2023-02-26T00:59:28.254Z,2.43
2023-02-26T01:01:54.719Z,3.20
2023-02-26T01:04:23.097Z,4.83
2023-02-26T01:06:52.819Z,2.80
2023-02-26T01:09:25.782Z,3.30
2023-02-26T01:11:53.844Z,2.43
2023-02-26T01:14:20.842Z,1.33
2023-02-26T01:17:04.079Z,1.93
2023-02-26T01:19:38.089Z,2.53
2023-02-26T01:22:21.324Z,2.67
2023-02-26T01:24:50.053Z,3.17
2023-02-26T01:27:17.227Z,3.67
2023-02-26T01:29:44.358Z,4.00
2023-02-26T01:32:33.698Z,4.33
2023-02-26T01:35:05.976Z,3.20
2023-02-26T01:37:45.455Z,3.30
2023-02-26T01:40:27.598Z,4.00
2023-02-26T01:42:58.325Z,6.07
2023-02-26T01:45:32.428Z,2.70
2023-02-26T01:48:06.789Z,2.70
2023-02-26T01:50:35.986Z,1.77
2023-02-26T01:53:24.326Z,2.70
2023-02-26T01:56:08.943Z,1.57
2023-02-26T01:58:36.816Z,2.07
2023-02-26T02:01:04.329Z,2.77
2023-02-26T02:06:07.772Z,3.70
2023-02-26T02:08:35.840Z,1.70
2023-02-26T02:11:04.724Z,2.50
2023-02-26T02:13:54.845Z,2.53
2023-02-26T02:16:42.705Z,1.57
2023-02-26T02:19:44.431Z,4.10
2023-02-26T02:22:36.898Z,2.73
2023-02-26T02:25:12.151Z,3.53
2023-02-26T02:27:52.337Z,1.97
2023-02-26T02:30:52.296Z,2.17
2023-02-26T02:33:21.432Z,5.33
2023-02-26T02:35:56.326Z,1.80
2023-02-26T02:38:31.205Z,2.90
2023-02-26T02:41:06.397Z,1.33
2023-02-26T02:43:34.521Z,7.20
2023-02-26T02:46:05.770Z,3.97
2023-02-26T02:48:35.898Z,2.40
2023-02-26T02:51:06.707Z,5.43
2023-02-26T02:53:39.573Z,2.23
2023-02-26T02:56:11.215Z,3.27
2023-02-26T02:58:42.829Z,5.77
2023-02-26T03:01:12.527Z,2.70
2023-02-26T03:03:50.751Z,2.60
2023-02-26T03:06:17.936Z,3.10
2023-02-26T03:08:45.774Z,1.83
2023-02-26T03:11:12.539Z,4.90
2023-02-26T03:13:40.336Z,3.07
2023-02-26T03:16:10.041Z,2.73
2023-02-26T03:18:42.449Z,3.13
2023-02-26T03:21:13.788Z,3.00
2023-02-26T03:23:46.528Z,5.60
2023-02-26T03:26:17.856Z,2.40
2023-02-26T03:28:58.135Z,4.43
2023-02-26T03:32:23.426Z,3.57
2023-02-26T03:34:55.828Z,4.10
2023-02-26T03:37:41.834Z,5.17
2023-02-26T03:40:12.651Z,3.07
2023-02-26T03:42:49.513Z,3.37
2023-02-26T03:45:29.287Z,4.47
2023-02-26T03:47:56.541Z,4.17
2023-02-26T03:50:32.567Z,3.63
2023-02-26T03:53:01.151Z,3.47
2023-02-26T03:55:35.059Z,1.47
2023-02-26T03:58:01.951Z,5.13
2023-02-26T04:00:29.108Z,3.67
2023-02-26T04:03:02.200Z,4.10
2023-02-26T04:05:33.618Z,5.90
2023-02-26T04:08:00.220Z,4.10
2023-02-26T04:10:38.388Z,4.20
2023-02-26T04:13:04.890Z,4.60
2023-02-26T04:15:31.373Z,2.53
2023-02-26T04:17:57.860Z,3.03
2023-02-26T04:20:24.388Z,6.10
2023-02-26T04:22:51.064Z,3.10
2023-02-26T04:25:17.581Z,2.70
2023-02-26T04:27:44.040Z,4.97
2023-02-26T04:30:11.159Z,5.10
2023-02-26T04:32:37.696Z,3.27
2023-02-26T04:35:04.475Z,3.37
2023-02-26T04:37:31.086Z,2.37
2023-02-26T04:39:57.546Z,1.90
2023-02-26T04:42:24.077Z,6.00
2023-02-26T04:44:50.585Z,4.73
2023-02-26T04:47:17.057Z,4.10
2023-02-26T04:49:44.593Z,4.27
2023-02-26T04:52:11.096Z,3.53
2023-02-26T04:54:38.002Z,3.73
2023-02-26T04:57:04.556Z,2.50
2023-02-26T04:59:30.995Z,4.87
2023-02-26T05:01:57.548Z,4.07
2023-02-26T05:04:24.130Z,3.47
2023-02-26T05:06:50.761Z,4.50
2023-02-26T05:09:17.322Z,3.33
2023-02-26T05:11:43.796Z,4.57
2023-02-26T05:14:10.227Z,3.83
2023-02-26T05:16:36.688Z,3.30
2023-02-26T05:19:03.262Z,4.03
2023-02-26T05:21:29.721Z,3.67
2023-02-26T05:23:56.270Z,3.57
2023-02-26T05:26:23.247Z,3.43
2023-02-26T05:28:49.856Z,3.93
2023-02-26T05:31:16.411Z,2.53
2023-02-26T05:33:43.256Z,3.13
2023-02-26T05:36:10.145Z,6.43
2023-02-26T05:38:36.741Z,3.53
2023-02-26T05:41:03.352Z,4.87
2023-02-26T05:43:30.482Z,4.17
2023-02-26T05:45:57.105Z,4.73
2023-02-26T05:48:23.696Z,2.83
2023-02-26T05:50:50.562Z,5.97
2023-02-26T05:53:17.092Z,5.30
2023-02-26T05:55:43.576Z,3.93
2023-02-26T05:58:10.236Z,4.60
2023-02-26T06:00:36.739Z,5.73
2023-02-26T06:03:03.375Z,3.17
2023-02-26T06:05:29.832Z,5.23
2023-02-26T06:07:56.314Z,6.20
2023-02-26T06:10:22.767Z,4.77
2023-02-26T06:12:49.371Z,4.27
2023-02-26T06:15:15.849Z,5.00
2023-02-26T06:17:42.389Z,3.50
2023-02-26T06:20:10.015Z,4.60
2023-02-26T06:22:36.599Z,4.70
2023-02-26T06:25:03.451Z,3.10
2023-02-26T06:27:29.942Z,3.37
2023-02-26T06:29:56.383Z,3.67
2023-02-26T06:32:23.015Z,6.27
2023-02-26T06:34:49.534Z,4.10
2023-02-26T06:37:16.448Z,4.73
2023-02-26T06:39:43.109Z,6.43
2023-02-26T06:42:09.680Z,4.20
2023-02-26T06:44:36.215Z,3.53
2023-02-26T06:47:02.747Z,6.27
2023-02-26T06:49:29.219Z,3.67
2023-02-26T06:51:55.638Z,5.30
2023-02-26T06:54:22.158Z,4.13
2023-02-26T06:56:48.586Z,4.77
2023-02-26T06:59:15.471Z,4.50
2023-02-26T07:01:41.937Z,7.17
2023-02-26T07:04:08.509Z,4.60
2023-02-26T07:06:35.175Z,3.57
2023-02-26T07:09:01.785Z,3.57
2023-02-26T07:11:28.225Z,3.40
2023-02-26T07:13:55.228Z,5.07
2023-02-26T07:16:21.914Z,3.23
2023-02-26T07:18:48.430Z,3.50
2023-02-26T07:21:14.917Z,5.67
2023-02-26T07:23:41.420Z,5.83
2023-02-26T07:26:09.047Z,3.80
2023-02-26T07:28:35.841Z,7.67
2023-02-26T07:31:02.408Z,6.10
2023-02-26T07:33:28.985Z,5.23
2023-02-26T07:35:55.489Z,4.63
2023-02-26T07:38:22.002Z,7.37
2023-02-26T07:40:48.506Z,4.37
2023-02-26T07:43:14.965Z,4.13
2023-02-26T07:45:41.436Z,5.20
2023-02-26T07:48:08.051Z,4.60
2023-02-26T07:50:34.518Z,7.10
2023-02-26T07:53:01.051Z,5.10
2023-02-26T07:55:27.903Z,4.90
2023-02-26T07:57:54.448Z,3.23
2023-02-26T08:00:21.186Z,3.93
2023-02-26T08:02:47.919Z,3.80
2023-02-26T08:05:14.500Z,4.57
2023-02-26T08:07:41.027Z,5.63
2023-02-26T08:10:08.040Z,5.17
2023-02-26T08:12:34.541Z,5.50
2023-02-26T08:15:01.026Z,6.03
2023-02-26T08:17:27.635Z,5.17
2023-02-26T08:19:54.131Z,3.33
2023-02-26T08:22:21.244Z,4.03
2023-02-26T08:24:47.713Z,4.60
2023-02-26T08:27:14.151Z,3.90
2023-02-26T08:29:40.626Z,4.27
2023-02-26T08:32:07.257Z,5.97
2023-02-26T08:34:33.812Z,6.83
2023-02-26T08:37:00.292Z,5.47
2023-02-26T08:39:26.778Z,5.57
2023-02-26T08:41:53.239Z,4.33
2023-02-26T08:44:19.671Z,4.47
2023-02-26T08:46:46.172Z,6.43
2023-02-26T08:49:12.665Z,3.37
2023-02-26T08:51:39.137Z,4.60
2023-02-26T08:54:05.620Z,3.63
2023-02-26T08:56:32.283Z,3.87
2023-02-26T08:58:58.721Z,5.03
2023-02-26T09:01:25.557Z,5.50
2023-02-26T09:03:52.282Z,5.73
2023-02-26T09:06:18.787Z,6.90
2023-02-26T09:08:45.220Z,9.90
2023-02-26T09:11:12.182Z,10.17
2023-02-26T09:13:38.767Z,11.07
2023-02-26T09:16:05.741Z,7.83
2023-02-26T09:18:32.248Z,10.50
2023-02-26T09:20:58.696Z,6.97
2023-02-26T09:23:25.277Z,5.37
2023-02-26T09:25:56.848Z,7.63
2023-02-26T09:28:24.538Z,5.30
2023-02-26T09:30:53.036Z,5.07
2023-02-26T09:33:19.678Z,6.50
2023-02-26T09:35:51.660Z,6.27
2023-02-26T09:38:18.709Z,7.43
2023-02-26T09:40:51.199Z,5.03
2023-02-26T09:43:38.975Z,4.60
2023-02-26T09:46:22.218Z,2.70
2023-02-26T09:48:49.995Z,4.60
2023-02-26T09:51:20.578Z,3.13
2023-02-26T09:53:49.525Z,4.30
2023-02-26T09:56:18.105Z,7.47
2023-02-26T09:58:45.360Z,3.20
2023-02-26T10:01:32.552Z,4.20
2023-02-26T10:04:02.151Z,4.40
2023-02-26T10:06:29.811Z,5.27
2023-02-26T10:09:30.632Z,5.57
2023-02-26T10:12:20.950Z,7.37
2023-02-26T10:14:50.305Z,4.13
2023-02-26T10:17:22.910Z,2.63
2023-02-26T10:19:54.163Z,5.47
2023-02-26T10:22:37.968Z,5.33
2023-02-26T10:25:15.220Z,3.90
2023-02-26T10:28:39.555Z,3.67
2023-02-26T10:31:35.152Z,4.67
2023-02-26T10:34:10.968Z,5.60
2023-02-26T10:36:49.830Z,3.37
2023-02-26T10:39:40.454Z,3.67
2023-02-26T10:42:17.627Z,4.10
2023-02-26T10:45:15.080Z,3.83
2023-02-26T10:48:23.728Z,5.53
2023-02-26T10:50:57.963Z,4.07
2023-02-26T10:53:30.096Z,2.37
2023-02-26T10:56:40.324Z,3.03
2023-02-26T10:59:16.638Z,3.50
2023-02-26T11:01:46.391Z,4.93
2023-02-26T11:04:33.768Z,1.80
2023-02-26T11:07:08.040Z,4.27
2023-02-26T11:09:44.791Z,4.70
2023-02-26T11:12:15.910Z,5.67
2023-02-26T11:14:47.365Z,4.67
2023-02-26T11:17:31.522Z,3.80
2023-02-26T11:20:05.459Z,5.70
2023-02-26T11:22:39.229Z,5.43
2023-02-26T11:25:17.606Z,3.70
2023-02-26T11:27:50.967Z,3.97
2023-02-26T11:30:29.888Z,6.27
2023-02-26T11:33:02.432Z,7.27
2023-02-26T11:35:41.230Z,7.47
2023-02-26T11:38:17.224Z,4.77
2023-02-26T11:40:50.803Z,3.20
2023-02-26T11:43:27.015Z,3.87
2023-02-26T11:46:04.006Z,2.67
2023-02-26T11:48:48.428Z,7.23
2023-02-26T11:51:22.056Z,2.07
2023-02-26T11:54:09.084Z,5.77
2023-02-26T11:56:49.020Z,6.43
2023-02-26T11:59:39.060Z,5.40
2023-02-26T12:02:15.189Z,2.93
2023-02-26T12:04:54.163Z,5.77
2023-02-26T12:07:28.273Z,4.97
2023-02-26T12:09:57.466Z,5.20
2023-02-26T12:13:02.028Z,4.67
2023-02-26T12:15:53.341Z,2.37
2023-02-26T12:18:42.460Z,3.67
2023-02-26T12:21:20.836Z,3.27
2023-02-26T12:24:18.799Z,4.83
2023-02-26T12:26:56.955Z,2.60
2023-02-26T12:30:14.043Z,5.93
2023-02-26T12:33:23.626Z,4.20
2023-02-26T12:36:48.018Z,3.63
2023-02-26T12:39:29.942Z,4.10
2023-02-26T12:42:11.556Z,4.33
2023-02-26T12:45:13.318Z,3.93
2023-02-26T12:48:12.472Z,4.00
2023-02-26T12:50:56.857Z,4.03
2023-02-26T12:53:43.810Z,5.50
2023-02-26T12:56:37.490Z,4.47
2023-02-26T12:59:56.547Z,5.67
2023-02-26T13:03:04.560Z,2.50
2023-02-26T13:05:49.349Z,6.43
2023-02-26T13:08:19.798Z,8.43
2023-02-26T13:11:00.555Z,3.10
2023-02-26T13:13:40.375Z,7.90
2023-02-26T13:16:39.807Z,3.17
2023-02-26T13:19:13.938Z,3.17
2023-02-26T13:22:34.119Z,6.57
2023-02-26T13:25:19.314Z,5.27
2023-02-26T13:27:48.354Z,8.20
2023-02-26T13:30:47.402Z,2.70
2023-02-26T13:33:24.448Z,13.40
2023-02-26T13:36:09.519Z,4.30
2023-02-26T13:39:00.249Z,7.50
2023-02-26T13:42:00.380Z,6.77
2023-02-26T13:44:40.052Z,2.80
2023-02-26T13:47:31.671Z,4.77
2023-02-26T13:50:30.447Z,3.53
2023-02-26T13:53:05.935Z,2.33
2023-02-26T13:55:51.372Z,5.87
2023-02-26T13:58:30.354Z,3.07
2023-02-26T14:01:09.831Z,3.30
2023-02-26T14:03:49.517Z,2.57
2023-02-26T14:06:45.299Z,2.00
2023-02-26T14:09:33.083Z,4.17
2023-02-26T14:12:06.840Z,5.97
2023-02-26T14:15:11.839Z,2.43
2023-02-26T14:17:40.137Z,2.37
2023-02-26T14:20:33.220Z,2.43
2023-02-26T14:23:03.442Z,3.60
2023-02-26T14:26:00.123Z,1.63
2023-02-26T14:28:37.177Z,3.33
2023-02-26T14:31:11.533Z,3.80
2023-02-26T14:34:31.409Z,4.73
2023-02-26T14:37:10.427Z,4.90
2023-02-26T14:39:45.735Z,4.53
2023-02-26T14:42:32.486Z,1.70
2023-02-26T14:45:37.651Z,3.37
2023-02-26T14:48:07.306Z,2.70
2023-02-26T14:50:58.937Z,3.87
2023-02-26T14:53:44.295Z,4.30
2023-02-26T14:56:51.118Z,5.00
2023-02-26T14:59:32.824Z,4.47
2023-02-26T15:02:13.898Z,3.43
2023-02-26T15:05:13.635Z,2.80
2023-02-26T15:08:13.972Z,2.43
2023-02-26T15:11:06.114Z,4.23
2023-02-26T15:14:11.144Z,2.37
2023-02-26T15:16:52.953Z,2.13
2023-02-26T15:19:33.446Z,2.63
2023-02-26T15:22:30.562Z,3.73
2023-02-26T15:25:04.067Z,5.80
2023-02-26T15:27:43.241Z,3.87
2023-02-26T15:30:19.407Z,3.40
2023-02-26T15:32:49.956Z,5.70
2023-02-26T15:35:24.100Z,2.80
2023-02-26T15:38:03.987Z,1.53
2023-02-26T15:40:56.983Z,4.77
2023-02-26T15:43:34.225Z,3.60
2023-02-26T15:46:05.181Z,5.33
2023-02-26T15:48:40.802Z,4.33
2023-02-26T15:51:24.076Z,3.40
2023-02-26T15:53:58.836Z,5.37
2023-02-26T15:56:33.243Z,3.30
2023-02-26T15:59:17.626Z,2.77
2023-02-26T16:01:51.596Z,5.17
2023-02-26T16:04:24.592Z,4.13
2023-02-26T16:07:08.351Z,2.47
2023-02-26T16:09:44.485Z,3.60
2023-02-26T16:12:22.322Z,4.73
2023-02-26T16:15:09.619Z,2.10
2023-02-26T16:17:41.615Z,5.20
2023-02-26T16:20:31.112Z,3.00
2023-02-26T16:23:14.566Z,1.97
2023-02-26T16:26:05.804Z,3.17
2023-02-26T16:28:36.839Z,2.33
2023-02-26T16:31:10.586Z,4.27
2023-02-26T16:33:40.463Z,4.50
2023-02-26T16:36:16.614Z,4.17
2023-02-26T16:38:46.800Z,6.30
2023-02-26T16:41:20.368Z,3.60
2023-02-26T16:43:58.430Z,5.13
2023-02-26T16:46:57.411Z,3.20
2023-02-26T16:49:39.632Z,4.20
2023-02-26T16:52:23.542Z,5.37
2023-02-26T16:55:00.485Z,4.53
2023-02-26T16:57:54.247Z,4.10
2023-02-26T17:00:34.555Z,3.63
2023-02-26T17:03:13.464Z,6.37
2023-02-26T17:05:44.294Z,4.30
2023-02-26T17:08:13.900Z,7.30
2023-02-26T17:10:45.972Z,6.00
2023-02-26T17:13:28.835Z,6.27
2023-02-26T17:16:07.506Z,5.33
2023-02-26T17:18:34.493Z,5.67
2023-02-26T17:21:08.072Z,3.80
2023-02-26T17:23:46.684Z,8.30
2023-02-26T17:26:14.269Z,7.87
2023-02-26T17:28:44.757Z,6.23
2023-02-26T17:31:13.936Z,6.93
2023-02-26T17:33:43.578Z,8.67
2023-02-26T17:36:19.392Z,10.77
2023-02-26T17:38:47.882Z,8.93
2023-02-26T17:41:17.860Z,12.10
2023-02-26T17:43:44.620Z,15.40
2023-02-26T17:46:12.425Z,31.17
2023-02-26T17:48:39.597Z,12.20
2023-02-26T17:51:07.146Z,14.27
2023-02-26T17:53:40.815Z,14.73
2023-02-26T17:56:12.599Z,15.80
2023-02-26T17:58:39.582Z,18.50
2023-02-26T18:01:06.495Z,16.30
2023-02-26T18:03:33.095Z,17.80
2023-02-26T18:05:59.936Z,12.03
2023-02-26T18:08:32.593Z,13.03
2023-02-26T18:10:59.640Z,13.20
2023-02-26T18:13:27.124Z,10.70
2023-02-26T18:15:55.098Z,11.27
2023-02-26T18:18:22.524Z,7.80
2023-02-26T18:20:49.187Z,9.67
2023-02-26T18:23:16.782Z,7.17
2023-02-26T18:25:48.362Z,11.10
2023-02-26T18:28:18.093Z,7.23
2023-02-26T18:30:45.000Z,6.40
2023-02-26T18:33:12.671Z,12.00
2023-02-26T18:35:45.710Z,8.30
2023-02-26T18:38:13.904Z,8.07
2023-02-26T18:40:41.093Z,8.57
2023-02-26T18:43:10.387Z,7.50
2023-02-26T18:45:36.831Z,5.70
2023-02-26T18:48:03.677Z,5.90
2023-02-26T18:50:30.791Z,5.60
2023-02-26T18:52:57.277Z,5.47
2023-02-26T18:55:23.828Z,7.10
2023-02-26T18:57:50.276Z,7.63
2023-02-26T19:00:17.142Z,6.30
2023-02-26T19:02:44.916Z,5.57
2023-02-26T19:05:12.236Z,10.43
2023-02-26T19:07:38.838Z,10.87
2023-02-26T19:10:08.070Z,10.63
2023-02-26T19:12:35.138Z,11.43
2023-02-26T19:15:01.697Z,13.70
2023-02-26T19:17:28.177Z,11.70
2023-02-26T19:19:54.705Z,14.37
2023-02-26T19:22:21.152Z,12.97
2023-02-26T19:24:47.681Z,12.50
2023-02-26T19:27:15.102Z,8.70
2023-02-26T19:29:42.289Z,9.00
2023-02-26T19:32:09.263Z,10.33
2023-02-26T19:34:36.210Z,16.57
2023-02-26T19:37:02.685Z,16.90
2023-02-26T19:39:29.189Z,14.77
2023-02-26T19:41:56.089Z,15.87
2023-02-26T19:44:23.979Z,15.87
2023-02-26T19:46:50.882Z,27.57
2023-02-26T19:49:17.764Z,26.67
2023-02-26T19:51:44.316Z,23.20
2023-02-26T19:54:12.656Z,18.33
2023-02-26T19:56:40.443Z,15.27
2023-02-26T19:59:07.639Z,14.87
2023-02-26T20:01:34.467Z,12.73
2023-02-26T20:04:01.027Z,11.43
2023-02-26T20:06:27.774Z,9.20
2023-02-26T20:08:54.242Z,7.20
2023-02-26T20:11:20.753Z,7.00
2023-02-26T20:13:47.253Z,7.80
2023-02-26T20:16:14.016Z,6.97
2023-02-26T20:18:40.513Z,8.80
2023-02-26T20:21:09.720Z,9.60
2023-02-26T20:23:37.687Z,12.43
2023-02-26T20:26:09.728Z,14.80
2023-02-26T20:28:36.415Z,12.93
2023-02-26T20:31:03.542Z,14.67
2023-02-26T20:33:33.159Z,12.27
2023-02-26T20:36:00.311Z,13.00
2023-02-26T20:38:28.219Z,9.17
2023-02-26T20:40:55.301Z,13.10
2023-02-26T20:43:21.738Z,12.47
2023-02-26T20:45:49.157Z,9.37
2023-02-26T20:48:15.648Z,13.63
2023-02-26T20:50:42.150Z,12.90
2023-02-26T20:53:08.897Z,10.67
2023-02-26T20:55:35.703Z,9.03
2023-02-26T20:58:02.459Z,8.20
2023-02-26T21:00:29.371Z,11.77
2023-02-26T21:02:55.910Z,8.73
2023-02-26T21:05:22.792Z,14.47
2023-02-26T21:07:50.639Z,11.67
2023-02-26T21:10:18.419Z,13.07
2023-02-26T21:12:45.121Z,15.43
2023-02-26T21:15:12.442Z,7.83
2023-02-26T21:17:40.899Z,9.50
2023-02-26T21:20:09.101Z,10.40
2023-02-26T21:22:36.546Z,7.00
2023-02-26T21:25:04.164Z,6.90
2023-02-26T21:27:30.704Z,7.63
2023-02-26T21:29:57.167Z,8.97
2023-02-26T21:32:23.697Z,7.93
2023-02-26T21:34:50.186Z,8.30
2023-02-26T21:37:16.674Z,11.13
2023-02-26T21:39:43.171Z,7.80
2023-02-26T21:42:12.339Z,12.23
2023-02-26T21:44:38.798Z,8.50
2023-02-26T21:47:05.387Z,7.23
2023-02-26T21:49:32.581Z,7.87
2023-02-26T21:52:00.148Z,9.93
2023-02-26T21:54:26.850Z,6.37
2023-02-26T21:56:53.586Z,7.17
2023-02-26T21:59:20.498Z,15.67
2023-02-26T22:01:47.006Z,11.10
2023-02-26T22:04:13.455Z,11.80
2023-02-26T22:06:39.992Z,8.93
2023-02-26T22:09:06.673Z,8.53
2023-02-26T22:11:33.216Z,11.13
2023-02-26T22:13:59.698Z,8.33
2023-02-26T22:16:26.283Z,5.80
2023-02-26T22:18:52.731Z,6.37
2023-02-26T22:21:19.217Z,9.60
2023-02-26T22:23:45.697Z,8.93
2023-02-26T22:26:12.235Z,7.70
2023-02-26T22:28:38.733Z,8.97
2023-02-26T22:31:05.405Z,8.57
2023-02-26T22:33:31.985Z,9.73
2023-02-26T22:36:00.066Z,8.60
2023-02-26T22:38:26.887Z,6.40
2023-02-26T22:40:53.449Z,9.17
2023-02-26T22:43:20.362Z,7.93
2023-02-26T22:45:47.671Z,8.50
2023-02-26T22:48:14.453Z,9.20
2023-02-26T22:50:42.160Z,9.40
2023-02-26T22:53:08.595Z,7.50
2023-02-26T22:55:35.093Z,6.40
2023-02-26T22:58:01.568Z,6.13
2023-02-26T23:00:28.839Z,7.53
2023-02-26T23:02:55.792Z,10.77
2023-02-26T23:05:23.501Z,8.70
2023-02-26T23:07:53.984Z,6.93
2023-02-26T23:10:21.958Z,8.20
2023-02-26T23:12:48.838Z,10.57
2023-02-26T23:15:16.065Z,6.90
2023-02-26T23:17:42.867Z,7.57
2023-02-26T23:20:14.049Z,12.03
2023-02-26T23:22:43.947Z,8.97
2023-02-26T23:25:15.149Z,8.33
2023-02-26T23:27:42.129Z,9.13
2023-02-26T23:30:09.606Z,7.70
2023-02-26T23:32:36.952Z,10.70
2023-02-26T23:35:04.516Z,9.73
2023-02-26T23:37:31.359Z,8.33
2023-02-26T23:39:58.632Z,6.50
2023-02-26T23:42:25.152Z,9.47
2023-02-26T23:44:51.664Z,9.10
2023-02-26T23:47:18.859Z,10.30
2023-02-26T23:49:45.349Z,9.17
2023-02-26T23:52:11.876Z,11.97
2023-02-26T23:54:40.104Z,11.13
2023-02-26T23:57:07.443Z,9.47
2023-02-26T23:59:34.174Z,11.97
